createdAt,value
2024-01-05T00:07:03.667Z,99796.22
2024-01-05T00:17:07.114Z,99800.50
2024-01-05T00:27:11.686Z,99807.47
2024-01-05T00:37:15.119Z,99812.63
2024-01-05T00:47:19.619Z,99815.72
2024-01-05T00:57:23.988Z,99820.03
2024-01-05T01:07:28.424Z,99824.41
2024-01-05T01:17:31.915Z,99827.25
2024-01-05T01:27:36.648Z,99832.44
2024-01-05T01:37:39.919Z,99836.91
2024-01-05T01:47:46.820Z,99841.94
2024-01-05T01:57:50.474Z,99841.56
2024-01-05T02:07:55.210Z,99843.28
2024-01-05T02:17:58.424Z,99845.81
2024-01-05T02:28:02.905Z,99850.00
2024-01-05T02:38:07.326Z,99844.19
2024-01-05T02:48:12.506Z,99848.00
2024-01-05T02:58:15.912Z,99850.50
2024-01-05T03:08:21.099Z,99849.00
2024-01-05T03:18:25.285Z,99853.91
2024-01-05T03:28:29.874Z,99849.56
2024-01-05T03:38:32.827Z,99855.84
2024-01-05T03:48:37.279Z,99855.72
2024-01-05T03:58:40.434Z,99862.56
2024-01-05T04:08:44.896Z,99866.00
2024-01-05T04:18:48.200Z,99869.75
2024-01-05T04:28:53.933Z,99872.22
2024-01-05T04:38:57.084Z,99877.72
2024-01-05T04:49:01.664Z,99883.59
2024-01-05T04:59:04.694Z,99890.31
2024-01-05T05:09:11.203Z,99896.88
2024-01-05T05:19:14.488Z,99902.19
2024-01-05T05:29:19.833Z,99907.78
2024-01-05T05:39:23.377Z,99912.75
2024-01-05T05:49:28.106Z,99917.09
2024-01-05T05:59:31.731Z,99922.31
2024-01-05T06:09:36.291Z,99927.34
2024-01-05T06:19:39.617Z,99931.47
2024-01-05T06:29:45.184Z,99937.25
2024-01-05T06:39:49.109Z,99942.97
2024-01-05T06:49:54.627Z,99946.72
2024-01-05T06:59:58.223Z,99950.84
2024-01-05T07:10:32.253Z,99956.09
2024-01-05T07:20:40.853Z,99956.66
2024-01-05T07:30:45.702Z,99960.53
2024-01-05T07:40:49.826Z,99964.59
2024-01-05T07:51:01.648Z,99969.63
2024-01-05T08:01:09.483Z,99973.69
2024-01-05T08:47:39.891Z,99985.06
2024-01-05T08:57:51.618Z,99972.88
2024-01-05T09:07:56.473Z,99970.88
2024-01-05T09:17:59.766Z,99974.66
2024-01-05T09:28:07.572Z,99978.19
2024-01-05T09:38:10.720Z,99982.06
2024-01-05T09:48:19.995Z,99983.00
2024-01-05T09:58:23.449Z,99980.09
2024-01-05T10:08:27.984Z,99983.44
2024-01-05T10:18:31.782Z,99987.22
2024-01-05T10:28:39.450Z,99986.00
2024-01-05T10:38:51.528Z,99990.47
2024-01-05T10:49:14.742Z,99989.59
2024-01-05T10:59:21.730Z,99992.25
2024-01-05T11:09:37.813Z,99995.03
2024-01-05T11:20:22.117Z,99998.28
2024-01-05T11:30:42.185Z,100000.97
2024-01-05T11:40:50.698Z,99998.69
2024-01-05T12:14:59.137Z,100001.34
2024-01-05T12:25:02.520Z,100007.34
2024-01-05T12:35:08.552Z,100004.63
2024-01-05T12:45:12.028Z,100012.53
2024-01-05T12:55:29.882Z,100017.03
2024-01-05T13:06:14.159Z,100025.19
2024-01-05T13:16:34.890Z,100030.91
2024-01-05T13:27:14.414Z,100030.88
2024-01-05T13:37:55.546Z,100039.50
2024-01-05T13:48:08.968Z,100046.84
2024-01-05T13:58:41.874Z,100040.69
2024-01-05T14:08:49.088Z,100045.06
2024-01-05T14:19:07.309Z,100054.19
2024-01-05T15:37:21.413Z,100053.97
2024-01-05T15:51:14.008Z,100063.22
2024-01-05T15:59:47.689Z,100062.66
2024-01-05T16:10:09.048Z,100066.94
2024-01-05T16:21:19.919Z,100065.38
2024-01-05T16:31:56.663Z,100077.72
2024-01-05T16:48:30.418Z,100078.94
2024-01-05T17:04:41.428Z,100092.09
2024-01-05T17:15:20.208Z,100095.72
2024-01-05T17:45:27.776Z,100092.13
2024-01-05T17:59:48.890Z,100113.41
2024-01-05T18:30:55.472Z,100129.63
2024-01-05T18:42:13.720Z,100116.16
2024-01-05T18:44:05.474Z,100126.19
2024-01-05T18:54:25.001Z,100140.19
2024-01-05T19:05:52.023Z,100149.38
2024-01-05T19:16:29.984Z,100157.88
2024-01-05T19:27:46.124Z,100158.56
2024-01-05T19:38:23.949Z,100165.34
2024-01-05T19:48:32.708Z,100173.16
2024-01-05T19:58:40.727Z,100182.69
2024-01-05T20:08:43.945Z,100193.66
2024-01-05T20:18:49.640Z,100206.34
2024-01-05T20:28:52.966Z,100211.88
2024-01-05T20:38:59.267Z,100222.47
2024-01-05T20:49:04.069Z,100223.56
2024-01-05T20:59:08.874Z,100224.47
2024-01-05T21:09:13.432Z,100237.75
2024-01-05T21:19:19.547Z,100243.28
2024-01-05T21:29:25.228Z,100249.16
2024-01-05T21:39:31.302Z,100252.88
2024-01-05T21:49:37.147Z,100265.00
2024-01-05T21:59:42.442Z,100273.97
2024-01-05T22:09:48.438Z,100281.22
2024-01-05T22:19:53.120Z,100286.81
2024-01-05T22:29:56.300Z,100291.97
2024-01-05T22:40:01.088Z,100297.69
2024-01-05T22:50:05.344Z,100295.56
2024-01-05T23:00:20.810Z,100304.53
2024-01-05T23:10:27.605Z,100307.84
2024-01-05T23:20:36.949Z,100315.97
2024-01-05T23:30:43.458Z,100312.75
2024-01-05T23:40:51.935Z,100321.88
2024-01-05T23:50:55.403Z,100325.72
